sensor_id;sensor_type;location;lat;lon;timestamp;P1;durP1;ratioP1;P2;durP2;ratioP2
29370;SDS011;16357;52.188;7.838;2023-03-01T00:01:02;11.05;;;6.28;;
29370;SDS011;16357;52.188;7.838;2023-03-01T00:03:29;10.40;;;5.78;;
29370;SDS011;16357;52.188;7.838;2023-03-01T00:05:56;10.60;;;5.03;;
29370;SDS011;16357;52.188;7.838;2023-03-01T00:08:22;8.52;;;5.28;;
29370;SDS011;16357;52.188;7.838;2023-03-01T00:10:48;9.25;;;5.05;;
29370;SDS011;16357;52.188;7.838;2023-03-01T00:13:15;11.70;;;5.88;;
29370;SDS011;16357;52.188;7.838;2023-03-01T00:15:41;11.75;;;6.07;;
29370;SDS011;16357;52.188;7.838;2023-03-01T00:18:08;10.95;;;6.20;;
29370;SDS011;16357;52.188;7.838;2023-03-01T00:20:34;11.50;;;6.50;;
29370;SDS011;16357;52.188;7.838;2023-03-01T00:23:00;8.27;;;5.95;;
29370;SDS011;16357;52.188;7.838;2023-03-01T00:25:27;9.70;;;6.22;;
29370;SDS011;16357;52.188;7.838;2023-03-01T00:27:53;8.70;;;5.45;;
29370;SDS011;16357;52.188;7.838;2023-03-01T00:30:19;7.47;;;5.43;;
29370;SDS011;16357;52.188;7.838;2023-03-01T00:32:46;11.15;;;5.55;;
29370;SDS011;16357;52.188;7.838;2023-03-01T00:35:12;7.00;;;4.82;;
29370;SDS011;16357;52.188;7.838;2023-03-01T00:37:39;9.00;;;5.50;;
29370;SDS011;16357;52.188;7.838;2023-03-01T00:40:07;8.15;;;5.75;;
29370;SDS011;16357;52.188;7.838;2023-03-01T00:42:34;10.63;;;5.75;;
29370;SDS011;16357;52.188;7.838;2023-03-01T00:45:00;7.90;;;5.50;;
29370;SDS011;16357;52.188;7.838;2023-03-01T00:47:29;9.38;;;5.47;;
29370;SDS011;16357;52.188;7.838;2023-03-01T00:49:55;6.95;;;4.82;;
29370;SDS011;16357;52.188;7.838;2023-03-01T00:52:21;8.55;;;5.13;;
29370;SDS011;16357;52.188;7.838;2023-03-01T00:54:48;7.57;;;4.80;;
29370;SDS011;16357;52.188;7.838;2023-03-01T00:57:14;7.80;;;4.57;;
29370;SDS011;16357;52.188;7.838;2023-03-01T00:59:41;7.90;;;5.05;;
29370;SDS011;16357;52.188;7.838;2023-03-01T01:02:07;9.20;;;4.93;;
29370;SDS011;16357;52.188;7.838;2023-03-01T01:04:33;7.50;;;4.75;;
29370;SDS011;16357;52.188;7.838;2023-03-01T01:07:00;8.73;;;4.95;;
29370;SDS011;16357;52.188;7.838;2023-03-01T01:09:26;8.02;;;4.85;;
29370;SDS011;16357;52.188;7.838;2023-03-01T01:11:52;8.35;;;5.18;;
29370;SDS011;16357;52.188;7.838;2023-03-01T01:14:19;8.02;;;4.90;;
29370;SDS011;16357;52.188;7.838;2023-03-01T01:16:46;8.77;;;5.75;;
29370;SDS011;16357;52.188;7.838;2023-03-01T01:19:12;7.97;;;5.38;;
29370;SDS011;16357;52.188;7.838;2023-03-01T01:21:39;10.05;;;5.20;;
29370;SDS011;16357;52.188;7.838;2023-03-01T01:24:09;7.03;;;4.63;;
29370;SDS011;16357;52.188;7.838;2023-03-01T01:26:35;7.75;;;4.88;;
29370;SDS011;16357;52.188;7.838;2023-03-01T01:29:02;9.18;;;5.05;;
29370;SDS011;16357;52.188;7.838;2023-03-01T01:31:30;7.75;;;4.72;;
29370;SDS011;16357;52.188;7.838;2023-03-01T01:33:58;10.13;;;5.55;;
29370;SDS011;16357;52.188;7.838;2023-03-01T01:36:26;7.47;;;5.15;;
29370;SDS011;16357;52.188;7.838;2023-03-01T01:38:53;8.60;;;5.00;;
29370;SDS011;16357;52.188;7.838;2023-03-01T01:41:20;10.73;;;5.97;;
29370;SDS011;16357;52.188;7.838;2023-03-01T01:46:37;7.95;;;5.20;;
29370;SDS011;16357;52.188;7.838;2023-03-01T01:49:07;7.55;;;5.07;;
29370;SDS011;16357;52.188;7.838;2023-03-01T01:51:51;8.90;;;5.15;;
29370;SDS011;16357;52.188;7.838;2023-03-01T01:54:25;6.72;;;5.05;;
29370;SDS011;16357;52.188;7.838;2023-03-01T01:56:59;8.63;;;5.05;;
29370;SDS011;16357;52.188;7.838;2023-03-01T01:59:30;6.65;;;4.85;;
29370;SDS011;16357;52.188;7.838;2023-03-01T02:01:59;7.72;;;4.90;;
29370;SDS011;16357;52.188;7.838;2023-03-01T02:04:30;8.25;;;5.00;;
29370;SDS011;16357;52.188;7.838;2023-03-01T02:07:01;9.77;;;5.47;;
29370;SDS011;16357;52.188;7.838;2023-03-01T02:09:32;6.97;;;4.88;;
29370;SDS011;16357;52.188;7.838;2023-03-01T02:12:00;10.25;;;5.78;;
29370;SDS011;16357;52.188;7.838;2023-03-01T02:14:28;8.20;;;5.00;;
29370;SDS011;16357;52.188;7.838;2023-03-01T02:16:54;9.85;;;5.50;;
29370;SDS011;16357;52.188;7.838;2023-03-01T02:22:28;7.75;;;5.05;;
29370;SDS011;16357;52.188;7.838;2023-03-01T02:25:03;10.27;;;5.85;;
29370;SDS011;16357;52.188;7.838;2023-03-01T02:27:44;8.57;;;5.93;;
29370;SDS011;16357;52.188;7.838;2023-03-01T02:30:17;11.00;;;5.97;;
29370;SDS011;16357;52.188;7.838;2023-03-01T02:32:45;8.32;;;5.88;;
29370;SDS011;16357;52.188;7.838;2023-03-01T02:35:13;9.30;;;5.57;;
29370;SDS011;16357;52.188;7.838;2023-03-01T02:37:42;7.75;;;5.20;;
29370;SDS011;16357;52.188;7.838;2023-03-01T02:40:14;9.10;;;5.72;;
29370;SDS011;16357;52.188;7.838;2023-03-01T02:42:47;9.63;;;5.95;;
29370;SDS011;16357;52.188;7.838;2023-03-01T02:45:22;9.52;;;5.40;;
29370;SDS011;16357;52.188;7.838;2023-03-01T02:47:49;8.18;;;5.72;;
29370;SDS011;16357;52.188;7.838;2023-03-01T02:50:22;9.27;;;5.75;;
29370;SDS011;16357;52.188;7.838;2023-03-01T02:53:11;9.75;;;5.65;;
29370;SDS011;16357;52.188;7.838;2023-03-01T02:55:42;8.93;;;6.03;;
29370;SDS011;16357;52.188;7.838;2023-03-01T02:58:09;9.07;;;5.45;;
29370;SDS011;16357;52.188;7.838;2023-03-01T03:00:36;8.95;;;5.53;;
29370;SDS011;16357;52.188;7.838;2023-03-01T03:03:13;9.10;;;5.85;;
29370;SDS011;16357;52.188;7.838;2023-03-01T03:05:41;9.43;;;6.40;;
29370;SDS011;16357;52.188;7.838;2023-03-01T03:08:07;10.25;;;6.30;;
29370;SDS011;16357;52.188;7.838;2023-03-01T03:10:36;9.85;;;6.50;;
29370;SDS011;16357;52.188;7.838;2023-03-01T03:13:08;12.00;;;6.15;;
29370;SDS011;16357;52.188;7.838;2023-03-01T03:15:36;9.38;;;6.00;;
29370;SDS011;16357;52.188;7.838;2023-03-01T03:18:05;9.32;;;6.03;;
29370;SDS011;16357;52.188;7.838;2023-03-01T03:20:34;11.35;;;6.28;;
29370;SDS011;16357;52.188;7.838;2023-03-01T03:23:00;9.40;;;6.22;;
29370;SDS011;16357;52.188;7.838;2023-03-01T03:25:27;10.48;;;6.60;;
29370;SDS011;16357;52.188;7.838;2023-03-01T03:27:55;9.90;;;6.72;;
29370;SDS011;16357;52.188;7.838;2023-03-01T03:30:30;9.90;;;6.55;;
29370;SDS011;16357;52.188;7.838;2023-03-01T03:32:58;11.00;;;6.50;;
29370;SDS011;16357;52.188;7.838;2023-03-01T03:35:27;10.95;;;6.47;;
29370;SDS011;16357;52.188;7.838;2023-03-01T03:37:59;11.63;;;6.45;;
29370;SDS011;16357;52.188;7.838;2023-03-01T03:40:37;9.13;;;6.05;;
29370;SDS011;16357;52.188;7.838;2023-03-01T03:43:06;8.18;;;5.95;;
29370;SDS011;16357;52.188;7.838;2023-03-01T03:45:34;8.80;;;6.13;;
29370;SDS011;16357;52.188;7.838;2023-03-01T03:48:02;12.10;;;6.80;;
29370;SDS011;16357;52.188;7.838;2023-03-01T03:50:30;9.30;;;6.03;;
29370;SDS011;16357;52.188;7.838;2023-03-01T03:52:57;12.43;;;6.25;;
29370;SDS011;16357;52.188;7.838;2023-03-01T03:55:25;9.27;;;6.22;;
29370;SDS011;16357;52.188;7.838;2023-03-01T03:57:57;10.68;;;6.15;;
29370;SDS011;16357;52.188;7.838;2023-03-01T04:00:28;10.43;;;5.75;;
29370;SDS011;16357;52.188;7.838;2023-03-01T04:02:55;8.00;;;5.95;;
29370;SDS011;16357;52.188;7.838;2023-03-01T04:05:22;13.55;;;5.93;;
29370;SDS011;16357;52.188;7.838;2023-03-01T04:07:49;8.93;;;6.18;;
29370;SDS011;16357;52.188;7.838;2023-03-01T04:10:27;7.65;;;5.57;;
29370;SDS011;16357;52.188;7.838;2023-03-01T04:12:55;8.30;;;5.93;;
29370;SDS011;16357;52.188;7.838;2023-03-01T04:15:23;8.13;;;6.25;;
29370;SDS011;16357;52.188;7.838;2023-03-01T04:17:51;9.65;;;6.22;;
29370;SDS011;16357;52.188;7.838;2023-03-01T04:20:20;9.45;;;5.95;;
29370;SDS011;16357;52.188;7.838;2023-03-01T04:22:55;8.82;;;6.05;;
29370;SDS011;16357;52.188;7.838;2023-03-01T04:25:45;8.48;;;5.72;;
29370;SDS011;16357;52.188;7.838;2023-03-01T04:28:21;9.80;;;5.68;;
29370;SDS011;16357;52.188;7.838;2023-03-01T04:30:51;8.80;;;6.30;;
29370;SDS011;16357;52.188;7.838;2023-03-01T04:33:18;9.52;;;6.18;;
29370;SDS011;16357;52.188;7.838;2023-03-01T04:35:46;10.10;;;6.35;;
29370;SDS011;16357;52.188;7.838;2023-03-01T04:38:16;11.43;;;6.97;;
29370;SDS011;16357;52.188;7.838;2023-03-01T04:40:43;11.40;;;7.05;;
29370;SDS011;16357;52.188;7.838;2023-03-01T04:43:10;10.48;;;6.88;;
29370;SDS011;16357;52.188;7.838;2023-03-01T04:45:40;11.55;;;6.82;;
29370;SDS011;16357;52.188;7.838;2023-03-01T04:48:06;11.25;;;7.20;;
29370;SDS011;16357;52.188;7.838;2023-03-01T04:50:33;10.85;;;7.10;;
29370;SDS011;16357;52.188;7.838;2023-03-01T04:52:59;11.40;;;7.28;;
29370;SDS011;16357;52.188;7.838;2023-03-01T04:55:26;10.45;;;6.78;;
29370;SDS011;16357;52.188;7.838;2023-03-01T04:57:54;9.80;;;7.07;;
29370;SDS011;16357;52.188;7.838;2023-03-01T05:00:21;13.82;;;7.32;;
29370;SDS011;16357;52.188;7.838;2023-03-01T05:02:59;10.40;;;7.13;;
29370;SDS011;16357;52.188;7.838;2023-03-01T05:05:27;11.82;;;7.47;;
29370;SDS011;16357;52.188;7.838;2023-03-01T05:07:57;10.07;;;6.95;;
29370;SDS011;16357;52.188;7.838;2023-03-01T05:10:26;10.18;;;6.85;;
29370;SDS011;16357;52.188;7.838;2023-03-01T05:12:55;11.70;;;6.97;;
29370;SDS011;16357;52.188;7.838;2023-03-01T05:15:23;13.18;;;7.20;;
29370;SDS011;16357;52.188;7.838;2023-03-01T05:17:54;11.75;;;6.82;;
29370;SDS011;16357;52.188;7.838;2023-03-01T05:20:25;8.90;;;6.95;;
29370;SDS011;16357;52.188;7.838;2023-03-01T05:22:54;12.20;;;7.75;;
29370;SDS011;16357;52.188;7.838;2023-03-01T05:25:22;10.82;;;6.93;;
29370;SDS011;16357;52.188;7.838;2023-03-01T05:27:49;11.32;;;7.50;;
29370;SDS011;16357;52.188;7.838;2023-03-01T05:30:15;9.88;;;6.75;;
29370;SDS011;16357;52.188;7.838;2023-03-01T05:32:44;13.05;;;7.53;;
29370;SDS011;16357;52.188;7.838;2023-03-01T05:35:13;10.15;;;7.38;;
29370;SDS011;16357;52.188;7.838;2023-03-01T05:37:45;11.45;;;6.97;;
29370;SDS011;16357;52.188;7.838;2023-03-01T05:40:18;10.68;;;7.32;;
29370;SDS011;16357;52.188;7.838;2023-03-01T05:42:47;11.88;;;7.20;;
29370;SDS011;16357;52.188;7.838;2023-03-01T05:45:20;10.88;;;6.90;;
29370;SDS011;16357;52.188;7.838;2023-03-01T05:47:49;11.85;;;7.05;;
29370;SDS011;16357;52.188;7.838;2023-03-01T05:50:17;12.88;;;8.07;;
29370;SDS011;16357;52.188;7.838;2023-03-01T05:52:58;10.23;;;7.45;;
29370;SDS011;16357;52.188;7.838;2023-03-01T05:55:34;12.20;;;7.05;;
29370;SDS011;16357;52.188;7.838;2023-03-01T05:58:01;12.48;;;7.10;;
29370;SDS011;16357;52.188;7.838;2023-03-01T06:00:30;10.93;;;7.60;;
29370;SDS011;16357;52.188;7.838;2023-03-01T06:02:57;11.15;;;7.72;;
29370;SDS011;16357;52.188;7.838;2023-03-01T06:05:25;10.80;;;7.25;;
29370;SDS011;16357;52.188;7.838;2023-03-01T06:07:52;13.85;;;7.72;;
29370;SDS011;16357;52.188;7.838;2023-03-01T06:10:19;11.52;;;8.32;;
29370;SDS011;16357;52.188;7.838;2023-03-01T06:12:47;14.38;;;8.18;;
29370;SDS011;16357;52.188;7.838;2023-03-01T06:15:14;14.20;;;7.78;;
29370;SDS011;16357;52.188;7.838;2023-03-01T06:17:43;12.55;;;8.25;;
29370;SDS011;16357;52.188;7.838;2023-03-01T06:20:14;17.42;;;7.72;;
29370;SDS011;16357;52.188;7.838;2023-03-01T06:22:43;9.80;;;7.35;;
29370;SDS011;16357;52.188;7.838;2023-03-01T06:25:10;11.65;;;8.18;;
29370;SDS011;16357;52.188;7.838;2023-03-01T06:27:38;13.27;;;8.13;;
29370;SDS011;16357;52.188;7.838;2023-03-01T06:30:05;13.85;;;7.88;;
29370;SDS011;16357;52.188;7.838;2023-03-01T06:32:33;10.38;;;7.28;;
29370;SDS011;16357;52.188;7.838;2023-03-01T06:35:00;13.32;;;8.07;;
29370;SDS011;16357;52.188;7.838;2023-03-01T06:37:26;11.65;;;7.78;;
29370;SDS011;16357;52.188;7.838;2023-03-01T06:39:53;13.00;;;7.68;;
29370;SDS011;16357;52.188;7.838;2023-03-01T06:42:19;11.65;;;7.70;;
29370;SDS011;16357;52.188;7.838;2023-03-01T06:44:45;12.07;;;8.10;;
29370;SDS011;16357;52.188;7.838;2023-03-01T06:47:12;12.85;;;8.80;;
29370;SDS011;16357;52.188;7.838;2023-03-01T06:49:38;12.82;;;8.45;;
29370;SDS011;16357;52.188;7.838;2023-03-01T06:52:05;11.68;;;7.72;;
29370;SDS011;16357;52.188;7.838;2023-03-01T06:54:31;15.43;;;9.60;;
29370;SDS011;16357;52.188;7.838;2023-03-01T06:56:58;15.88;;;9.70;;
29370;SDS011;16357;52.188;7.838;2023-03-01T06:59:24;14.88;;;8.38;;
29370;SDS011;16357;52.188;7.838;2023-03-01T07:01:50;12.88;;;8.00;;
29370;SDS011;16357;52.188;7.838;2023-03-01T07:04:17;14.75;;;9.15;;
29370;SDS011;16357;52.188;7.838;2023-03-01T07:06:43;16.55;;;9.88;;
29370;SDS011;16357;52.188;7.838;2023-03-01T07:09:10;15.02;;;9.40;;
29370;SDS011;16357;52.188;7.838;2023-03-01T07:11:36;15.68;;;8.68;;
29370;SDS011;16357;52.188;7.838;2023-03-01T07:14:03;14.40;;;8.93;;
29370;SDS011;16357;52.188;7.838;2023-03-01T07:16:29;14.48;;;8.70;;
29370;SDS011;16357;52.188;7.838;2023-03-01T07:18:56;13.55;;;8.68;;
29370;SDS011;16357;52.188;7.838;2023-03-01T07:21:24;14.40;;;8.48;;
29370;SDS011;16357;52.188;7.838;2023-03-01T07:23:51;14.43;;;8.82;;
29370;SDS011;16357;52.188;7.838;2023-03-01T07:26:17;14.65;;;8.00;;
29370;SDS011;16357;52.188;7.838;2023-03-01T07:28:44;17.40;;;8.70;;
29370;SDS011;16357;52.188;7.838;2023-03-01T07:31:10;14.40;;;9.10;;
29370;SDS011;16357;52.188;7.838;2023-03-01T07:33:36;16.02;;;9.50;;
29370;SDS011;16357;52.188;7.838;2023-03-01T07:36:03;13.23;;;8.32;;
29370;SDS011;16357;52.188;7.838;2023-03-01T07:38:30;12.57;;;7.72;;
29370;SDS011;16357;52.188;7.838;2023-03-01T07:40:58;13.07;;;7.20;;
29370;SDS011;16357;52.188;7.838;2023-03-01T07:43:26;14.82;;;7.35;;
29370;SDS011;16357;52.188;7.838;2023-03-01T07:45:54;12.23;;;7.32;;
29370;SDS011;16357;52.188;7.838;2023-03-01T07:48:20;12.50;;;7.30;;
29370;SDS011;16357;52.188;7.838;2023-03-01T07:50:46;15.65;;;7.85;;
29370;SDS011;16357;52.188;7.838;2023-03-01T07:53:13;16.42;;;9.15;;
29370;SDS011;16357;52.188;7.838;2023-03-01T07:55:39;11.60;;;8.10;;
29370;SDS011;16357;52.188;7.838;2023-03-01T07:58:06;11.43;;;7.60;;
29370;SDS011;16357;52.188;7.838;2023-03-01T08:00:32;11.68;;;7.80;;
29370;SDS011;16357;52.188;7.838;2023-03-01T08:02:59;14.30;;;7.65;;
29370;SDS011;16357;52.188;7.838;2023-03-01T08:05:27;13.38;;;7.47;;
29370;SDS011;16357;52.188;7.838;2023-03-01T08:07:54;11.73;;;7.20;;
29370;SDS011;16357;52.188;7.838;2023-03-01T08:10:20;12.52;;;7.10;;
29370;SDS011;16357;52.188;7.838;2023-03-01T08:12:47;10.15;;;6.97;;
29370;SDS011;16357;52.188;7.838;2023-03-01T08:15:13;11.27;;;7.10;;
29370;SDS011;16357;52.188;7.838;2023-03-01T08:17:40;10.23;;;6.45;;
29370;SDS011;16357;52.188;7.838;2023-03-01T08:20:06;13.80;;;5.90;;
29370;SDS011;16357;52.188;7.838;2023-03-01T08:22:33;11.40;;;6.30;;
29370;SDS011;16357;52.188;7.838;2023-03-01T08:25:00;10.40;;;6.78;;
29370;SDS011;16357;52.188;7.838;2023-03-01T08:27:26;10.60;;;6.20;;
29370;SDS011;16357;52.188;7.838;2023-03-01T08:29:53;10.02;;;6.40;;
29370;SDS011;16357;52.188;7.838;2023-03-01T08:32:19;11.45;;;7.30;;
29370;SDS011;16357;52.188;7.838;2023-03-01T08:34:46;11.32;;;6.75;;
29370;SDS011;16357;52.188;7.838;2023-03-01T08:37:13;10.82;;;6.82;;
29370;SDS011;16357;52.188;7.838;2023-03-01T08:39:39;13.68;;;7.22;;
29370;SDS011;16357;52.188;7.838;2023-03-01T08:42:06;14.00;;;7.72;;
29370;SDS011;16357;52.188;7.838;2023-03-01T08:44:32;12.52;;;7.03;;
29370;SDS011;16357;52.188;7.838;2023-03-01T08:46:59;14.23;;;8.18;;
29370;SDS011;16357;52.188;7.838;2023-03-01T08:49:26;12.60;;;7.85;;
29370;SDS011;16357;52.188;7.838;2023-03-01T08:51:52;12.35;;;7.65;;
29370;SDS011;16357;52.188;7.838;2023-03-01T08:54:20;14.73;;;7.68;;
29370;SDS011;16357;52.188;7.838;2023-03-01T08:56:48;12.15;;;7.40;;
29370;SDS011;16357;52.188;7.838;2023-03-01T08:59:15;12.65;;;7.43;;
29370;SDS011;16357;52.188;7.838;2023-03-01T09:01:43;15.27;;;7.72;;
29370;SDS011;16357;52.188;7.838;2023-03-01T09:04:10;12.82;;;8.05;;
29370;SDS011;16357;52.188;7.838;2023-03-01T09:06:37;14.35;;;8.07;;
29370;SDS011;16357;52.188;7.838;2023-03-01T09:09:04;13.50;;;8.38;;
29370;SDS011;16357;52.188;7.838;2023-03-01T09:11:31;12.43;;;8.23;;
29370;SDS011;16357;52.188;7.838;2023-03-01T09:13:59;15.70;;;9.25;;
29370;SDS011;16357;52.188;7.838;2023-03-01T09:16:25;13.88;;;8.23;;
29370;SDS011;16357;52.188;7.838;2023-03-01T09:18:53;14.88;;;8.75;;
29370;SDS011;16357;52.188;7.838;2023-03-01T09:21:21;19.60;;;9.40;;
29370;SDS011;16357;52.188;7.838;2023-03-01T09:24:05;16.75;;;9.70;;
29370;SDS011;16357;52.188;7.838;2023-03-01T09:26:33;14.68;;;9.05;;
29370;SDS011;16357;52.188;7.838;2023-03-01T09:28:59;13.27;;;8.48;;
29370;SDS011;16357;52.188;7.838;2023-03-01T09:31:26;17.38;;;9.25;;
29370;SDS011;16357;52.188;7.838;2023-03-01T09:33:52;15.40;;;9.43;;
29370;SDS011;16357;52.188;7.838;2023-03-01T09:36:21;14.13;;;8.85;;
29370;SDS011;16357;52.188;7.838;2023-03-01T09:38:49;14.13;;;9.23;;
29370;SDS011;16357;52.188;7.838;2023-03-01T09:45:06;15.45;;;8.93;;
29370;SDS011;16357;52.188;7.838;2023-03-01T09:47:00;15.55;;;9.30;;
29370;SDS011;16357;52.188;7.838;2023-03-01T09:49:29;15.13;;;8.88;;
29370;SDS011;16357;52.188;7.838;2023-03-01T09:54:33;13.88;;;8.10;;
29370;SDS011;16357;52.188;7.838;2023-03-01T10:05:56;12.90;;;8.23;;
29370;SDS011;16357;52.188;7.838;2023-03-01T10:08:26;11.13;;;7.50;;
29370;SDS011;16357;52.188;7.838;2023-03-01T10:11:03;11.80;;;7.72;;
29370;SDS011;16357;52.188;7.838;2023-03-01T10:13:47;12.48;;;8.02;;
29370;SDS011;16357;52.188;7.838;2023-03-01T10:16:38;11.77;;;7.63;;
29370;SDS011;16357;52.188;7.838;2023-03-01T10:19:15;11.85;;;7.80;;
29370;SDS011;16357;52.188;7.838;2023-03-01T10:21:49;12.32;;;7.28;;
29370;SDS011;16357;52.188;7.838;2023-03-01T10:24:17;10.77;;;7.38;;
29370;SDS011;16357;52.188;7.838;2023-03-01T10:26:56;11.60;;;6.70;;
29370;SDS011;16357;52.188;7.838;2023-03-01T10:29:30;11.48;;;7.18;;
29370;SDS011;16357;52.188;7.838;2023-03-01T10:32:05;11.50;;;7.00;;
29370;SDS011;16357;52.188;7.838;2023-03-01T10:34:35;10.38;;;7.20;;
29370;SDS011;16357;52.188;7.838;2023-03-01T10:42:30;11.40;;;7.05;;
29370;SDS011;16357;52.188;7.838;2023-03-01T10:48:30;9.10;;;6.05;;
29370;SDS011;16357;52.188;7.838;2023-03-01T10:56:03;11.23;;;6.18;;
29370;SDS011;16357;52.188;7.838;2023-03-01T10:58:33;8.60;;;5.65;;
29370;SDS011;16357;52.188;7.838;2023-03-01T11:01:06;7.65;;;5.60;;
29370;SDS011;16357;52.188;7.838;2023-03-01T11:06:33;7.30;;;5.45;;
29370;SDS011;16357;52.188;7.838;2023-03-01T11:09:13;10.65;;;5.82;;
29370;SDS011;16357;52.188;7.838;2023-03-01T11:11:40;9.02;;;5.57;;
29370;SDS011;16357;52.188;7.838;2023-03-01T11:14:18;7.03;;;5.10;;
29370;SDS011;16357;52.188;7.838;2023-03-01T11:17:03;7.65;;;5.05;;
29370;SDS011;16357;52.188;7.838;2023-03-01T11:19:32;10.70;;;5.63;;
29370;SDS011;16357;52.188;7.838;2023-03-01T11:22:17;8.57;;;4.88;;
29370;SDS011;16357;52.188;7.838;2023-03-01T11:24:47;8.25;;;5.45;;
29370;SDS011;16357;52.188;7.838;2023-03-01T11:27:35;7.88;;;5.32;;
29370;SDS011;16357;52.188;7.838;2023-03-01T11:30:07;8.65;;;5.53;;
29370;SDS011;16357;52.188;7.838;2023-03-01T11:33:05;7.22;;;4.50;;
29370;SDS011;16357;52.188;7.838;2023-03-01T11:35:41;8.27;;;5.22;;
29370;SDS011;16357;52.188;7.838;2023-03-01T11:40:52;7.40;;;5.00;;
29370;SDS011;16357;52.188;7.838;2023-03-01T11:57:07;9.25;;;6.15;;
29370;SDS011;16357;52.188;7.838;2023-03-01T12:05:17;9.93;;;5.85;;
29370;SDS011;16357;52.188;7.838;2023-03-01T12:13:23;9.20;;;6.05;;
29370;SDS011;16357;52.188;7.838;2023-03-01T12:16:11;9.73;;;6.05;;
29370;SDS011;16357;52.188;7.838;2023-03-01T12:21:55;9.77;;;6.07;;
29370;SDS011;16357;52.188;7.838;2023-03-01T12:38:46;8.55;;;5.38;;
29370;SDS011;16357;52.188;7.838;2023-03-01T12:49:54;7.47;;;4.80;;
29370;SDS011;16357;52.188;7.838;2023-03-01T12:52:28;6.80;;;4.20;;
29370;SDS011;16357;52.188;7.838;2023-03-01T12:58:00;7.70;;;4.45;;
29370;SDS011;16357;52.188;7.838;2023-03-01T13:00:37;7.30;;;4.60;;
29370;SDS011;16357;52.188;7.838;2023-03-01T13:06:11;6.57;;;4.32;;
29370;SDS011;16357;52.188;7.838;2023-03-01T13:09:12;9.25;;;5.20;;
29370;SDS011;16357;52.188;7.838;2023-03-01T13:12:04;6.85;;;4.50;;
29370;SDS011;16357;52.188;7.838;2023-03-01T13:17:51;10.23;;;4.68;;
29370;SDS011;16357;52.188;7.838;2023-03-01T13:20:20;6.72;;;4.68;;
29370;SDS011;16357;52.188;7.838;2023-03-01T13:23:00;9.13;;;5.20;;
29370;SDS011;16357;52.188;7.838;2023-03-01T13:25:28;8.70;;;5.00;;
29370;SDS011;16357;52.188;7.838;2023-03-01T13:31:01;7.28;;;4.72;;
29370;SDS011;16357;52.188;7.838;2023-03-01T13:35:59;8.00;;;4.68;;
29370;SDS011;16357;52.188;7.838;2023-03-01T13:41:15;8.05;;;4.72;;
29370;SDS011;16357;52.188;7.838;2023-03-01T13:44:01;6.47;;;4.15;;
29370;SDS011;16357;52.188;7.838;2023-03-01T13:46:37;7.60;;;4.50;;
29370;SDS011;16357;52.188;7.838;2023-03-01T13:49:04;6.95;;;4.50;;
29370;SDS011;16357;52.188;7.838;2023-03-01T13:51:30;6.65;;;4.50;;
29370;SDS011;16357;52.188;7.838;2023-03-01T13:53:57;6.43;;;4.25;;
29370;SDS011;16357;52.188;7.838;2023-03-01T13:56:26;5.85;;;4.05;;
29370;SDS011;16357;52.188;7.838;2023-03-01T13:58:59;6.47;;;4.15;;
29370;SDS011;16357;52.188;7.838;2023-03-01T14:01:31;6.60;;;4.20;;
29370;SDS011;16357;52.188;7.838;2023-03-01T14:04:01;5.68;;;3.80;;
29370;SDS011;16357;52.188;7.838;2023-03-01T14:06:29;6.20;;;3.88;;
29370;SDS011;16357;52.188;7.838;2023-03-01T14:09:17;5.80;;;3.78;;
29370;SDS011;16357;52.188;7.838;2023-03-01T14:20:40;7.90;;;4.13;;
29370;SDS011;16357;52.188;7.838;2023-03-01T14:23:15;8.75;;;4.22;;
29370;SDS011;16357;52.188;7.838;2023-03-01T14:25:46;7.18;;;4.10;;
29370;SDS011;16357;52.188;7.838;2023-03-01T14:28:22;5.05;;;3.50;;
29370;SDS011;16357;52.188;7.838;2023-03-01T14:30:53;8.00;;;3.70;;
29370;SDS011;16357;52.188;7.838;2023-03-01T14:38:42;9.55;;;3.60;;
29370;SDS011;16357;52.188;7.838;2023-03-01T14:41:14;5.65;;;3.53;;
29370;SDS011;16357;52.188;7.838;2023-03-01T14:43:46;6.18;;;3.67;;
29370;SDS011;16357;52.188;7.838;2023-03-01T14:46:28;8.63;;;4.05;;
29370;SDS011;16357;52.188;7.838;2023-03-01T14:51:38;6.15;;;3.65;;
29370;SDS011;16357;52.188;7.838;2023-03-01T14:54:18;9.10;;;3.75;;
29370;SDS011;16357;52.188;7.838;2023-03-01T14:56:48;5.80;;;3.33;;
29370;SDS011;16357;52.188;7.838;2023-03-01T14:59:14;5.70;;;3.45;;
29370;SDS011;16357;52.188;7.838;2023-03-01T15:01:41;5.00;;;3.10;;
29370;SDS011;16357;52.188;7.838;2023-03-01T15:04:10;5.78;;;3.80;;
29370;SDS011;16357;52.188;7.838;2023-03-01T15:06:38;4.30;;;3.00;;
29370;SDS011;16357;52.188;7.838;2023-03-01T15:09:05;4.40;;;3.22;;
29370;SDS011;16357;52.188;7.838;2023-03-01T15:11:37;5.13;;;3.17;;
29370;SDS011;16357;52.188;7.838;2023-03-01T15:19:20;6.55;;;3.25;;
29370;SDS011;16357;52.188;7.838;2023-03-01T15:21:49;6.55;;;2.92;;
29370;SDS011;16357;52.188;7.838;2023-03-01T15:24:17;6.00;;;3.67;;
29370;SDS011;16357;52.188;7.838;2023-03-01T15:26:52;5.18;;;3.47;;
29370;SDS011;16357;52.188;7.838;2023-03-01T15:29:24;6.80;;;4.13;;
29370;SDS011;16357;52.188;7.838;2023-03-01T15:32:06;5.47;;;3.40;;
29370;SDS011;16357;52.188;7.838;2023-03-01T15:34:50;4.97;;;3.17;;
29370;SDS011;16357;52.188;7.838;2023-03-01T15:37:38;4.50;;;3.40;;
29370;SDS011;16357;52.188;7.838;2023-03-01T15:40:24;5.50;;;3.42;;
29370;SDS011;16357;52.188;7.838;2023-03-01T15:43:01;7.00;;;4.55;;
29370;SDS011;16357;52.188;7.838;2023-03-01T15:45:33;5.57;;;3.88;;
29370;SDS011;16357;52.188;7.838;2023-03-01T15:48:04;6.40;;;3.78;;
29370;SDS011;16357;52.188;7.838;2023-03-01T15:50:40;7.55;;;4.57;;
29370;SDS011;16357;52.188;7.838;2023-03-01T15:53:24;5.70;;;4.22;;
29370;SDS011;16357;52.188;7.838;2023-03-01T15:55:50;4.88;;;3.70;;
29370;SDS011;16357;52.188;7.838;2023-03-01T15:58:18;5.97;;;3.90;;
29370;SDS011;16357;52.188;7.838;2023-03-01T16:00:46;4.28;;;3.33;;
29370;SDS011;16357;52.188;7.838;2023-03-01T16:03:26;6.32;;;3.60;;
29370;SDS011;16357;52.188;7.838;2023-03-01T16:05:52;6.57;;;3.63;;
29370;SDS011;16357;52.188;7.838;2023-03-01T16:08:19;6.63;;;3.30;;
29370;SDS011;16357;52.188;7.838;2023-03-01T16:10:45;4.68;;;3.53;;
29370;SDS011;16357;52.188;7.838;2023-03-01T16:13:13;5.72;;;3.70;;
29370;SDS011;16357;52.188;7.838;2023-03-01T16:15:40;4.50;;;3.38;;
29370;SDS011;16357;52.188;7.838;2023-03-01T16:18:06;6.20;;;3.38;;
29370;SDS011;16357;52.188;7.838;2023-03-01T16:20:34;5.68;;;3.35;;
29370;SDS011;16357;52.188;7.838;2023-03-01T16:23:01;6.30;;;3.45;;
29370;SDS011;16357;52.188;7.838;2023-03-01T16:25:30;4.28;;;3.00;;
29370;SDS011;16357;52.188;7.838;2023-03-01T16:27:58;7.72;;;2.85;;
29370;SDS011;16357;52.188;7.838;2023-03-01T16:30:26;5.15;;;3.08;;
29370;SDS011;16357;52.188;7.838;2023-03-01T16:32:53;4.25;;;2.95;;
29370;SDS011;16357;52.188;7.838;2023-03-01T16:35:20;5.28;;;3.15;;
29370;SDS011;16357;52.188;7.838;2023-03-01T16:37:47;5.25;;;3.40;;
29370;SDS011;16357;52.188;7.838;2023-03-01T16:40:19;4.82;;;2.92;;
29370;SDS011;16357;52.188;7.838;2023-03-01T16:42:52;5.00;;;3.28;;
29370;SDS011;16357;52.188;7.838;2023-03-01T16:45:19;4.30;;;3.15;;
29370;SDS011;16357;52.188;7.838;2023-03-01T16:47:50;5.47;;;3.00;;
29370;SDS011;16357;52.188;7.838;2023-03-01T16:50:21;4.85;;;3.33;;
29370;SDS011;16357;52.188;7.838;2023-03-01T16:52:47;5.95;;;3.25;;
29370;SDS011;16357;52.188;7.838;2023-03-01T16:55:14;5.72;;;3.40;;
29370;SDS011;16357;52.188;7.838;2023-03-01T16:57:40;5.30;;;3.40;;
29370;SDS011;16357;52.188;7.838;2023-03-01T17:00:08;5.30;;;3.60;;
29370;SDS011;16357;52.188;7.838;2023-03-01T17:02:36;6.05;;;3.90;;
29370;SDS011;16357;52.188;7.838;2023-03-01T17:05:03;6.60;;;3.75;;
29370;SDS011;16357;52.188;7.838;2023-03-01T17:07:31;9.02;;;3.80;;